createdAt,value
2018-03-17T00:00:05.171Z,11.4
2018-03-17T00:00:45.686Z,11.36
2018-03-17T00:01:26.213Z,11.18
2018-03-17T00:02:06.729Z,11.17
2018-03-17T00:02:47.243Z,11.22
2018-03-17T00:03:27.779Z,11.29
2018-03-17T00:04:08.293Z,11.27
2018-03-17T00:04:48.801Z,11.4
2018-03-17T00:05:29.327Z,11.33
2018-03-17T00:06:09.898Z,11.35
2018-03-17T00:06:50.364Z,11.42
2018-03-17T00:07:30.869Z,11.33
2018-03-17T00:08:11.375Z,11.54
2018-03-17T00:08:51.943Z,11.55
2018-03-17T00:09:32.400Z,11.55
2018-03-17T00:10:12.923Z,11.61
2018-03-17T00:10:53.441Z,11.62
2018-03-17T00:11:33.963Z,11.65
2018-03-17T00:12:14.500Z,11.67
2018-03-17T00:12:55.033Z,11.7
2018-03-17T00:13:35.532Z,11.69
2018-03-17T00:14:16.051Z,11.62
2018-03-17T00:14:56.573Z,11.76
2018-03-17T00:15:37.101Z,11.7
2018-03-17T00:16:17.636Z,11.76
2018-03-17T00:16:58.142Z,11.79
2018-03-17T00:17:38.660Z,11.9
2018-03-17T00:18:19.183Z,11.88
2018-03-17T00:18:59.705Z,11.83
2018-03-17T00:19:40.221Z,11.86
2018-03-17T00:20:20.726Z,11.83
2018-03-17T00:21:01.245Z,11.94
2018-03-17T00:21:41.772Z,11.76
2018-03-17T00:22:22.294Z,11.85
2018-03-17T00:23:02.812Z,11.79
2018-03-17T00:23:43.344Z,11.8
2018-03-17T00:24:23.871Z,11.78
2018-03-17T00:25:04.389Z,11.79
2018-03-17T00:25:44.913Z,11.8
2018-03-17T00:26:25.428Z,11.82
2018-03-17T00:27:05.959Z,11.85
2018-03-17T00:27:46.476Z,11.79
2018-03-17T00:28:26.990Z,11.79
2018-03-17T00:29:07.513Z,11.82
2018-03-17T00:29:48.028Z,11.6
2018-03-17T00:30:28.553Z,11.54
2018-03-17T00:31:09.068Z,11.47
2018-03-17T00:31:49.571Z,11.32
2018-03-17T00:32:30.087Z,11.42
2018-03-17T00:33:10.623Z,11.33
2018-03-17T00:33:51.871Z,11.24
2018-03-17T00:34:32.373Z,11.36
2018-03-17T00:35:12.898Z,11.37
2018-03-17T00:35:53.415Z,11.47
2018-03-17T00:36:33.955Z,11.46
2018-03-17T00:37:14.470Z,11.51
2018-03-17T00:37:54.985Z,11.58
2018-03-17T00:38:35.498Z,11.36
2018-03-17T00:39:16.008Z,10.97
2018-03-17T00:39:56.570Z,11.04
2018-03-17T00:40:37.047Z,11.18
2018-03-17T00:41:17.569Z,11.18
2018-03-17T00:41:58.079Z,11.18
2018-03-17T00:42:38.591Z,11.29
2018-03-17T00:43:19.126Z,11.29
2018-03-17T00:43:59.637Z,11.19
2018-03-17T00:44:40.159Z,11.22
2018-03-17T00:45:20.668Z,11.35
2018-03-17T00:46:01.182Z,11.32
2018-03-17T00:46:41.725Z,11.4
2018-03-17T00:47:22.249Z,11.46
2018-03-17T00:48:02.774Z,11.25
2018-03-17T00:48:43.298Z,11.29
2018-03-17T00:49:23.824Z,11.32
2018-03-17T00:50:04.335Z,11.37
2018-03-17T00:50:44.875Z,11.21
2018-03-17T00:51:25.398Z,11.28
2018-03-17T00:52:05.908Z,11.18
2018-03-17T00:52:46.429Z,11.07
2018-03-17T00:53:26.944Z,11.1
2018-03-17T00:54:07.450Z,10.96
2018-03-17T00:54:47.967Z,10.96
2018-03-17T00:55:28.477Z,10.96
2018-03-17T00:56:08.993Z,11.02
2018-03-17T00:56:49.505Z,10.97
2018-03-17T00:57:30.092Z,11.22
2018-03-17T00:58:10.549Z,11.25
2018-03-17T00:58:51.058Z,11.37
2018-03-17T00:59:31.577Z,11.35
2018-03-17T01:00:12.102Z,11.51
2018-03-17T01:00:52.627Z,11.37
2018-03-17T01:01:33.135Z,11.43
2018-03-17T01:02:13.655Z,11.43
2018-03-17T01:02:54.175Z,11.51
2018-03-17T01:03:34.672Z,11.4
2018-03-17T01:04:15.196Z,11.24
2018-03-17T01:04:55.713Z,11.18
2018-03-17T01:05:36.238Z,11.18
2018-03-17T01:06:16.757Z,11.19
2018-03-17T01:06:57.271Z,11.06
2018-03-17T01:07:37.790Z,11.11
2018-03-17T01:08:18.330Z,11.11
2018-03-17T01:08:58.857Z,11.04
2018-03-17T01:09:39.347Z,11.06
2018-03-17T01:10:19.858Z,11.04
2018-03-17T01:11:00.417Z,11.07
2018-03-17T01:11:40.948Z,11.21
2018-03-17T01:12:21.451Z,11.15
2018-03-17T01:13:01.971Z,11.03
2018-03-17T01:13:42.476Z,10.99
2018-03-17T01:14:23.015Z,10.81
2018-03-17T01:15:03.532Z,10.71
2018-03-17T01:15:44.051Z,10.84
2018-03-17T01:16:24.573Z,10.81
2018-03-17T01:17:05.080Z,10.79
2018-03-17T01:17:45.586Z,10.78
2018-03-17T01:18:26.114Z,10.79
2018-03-17T01:19:06.633Z,10.88
2018-03-17T01:19:47.145Z,10.96
2018-03-17T01:20:27.677Z,10.99
2018-03-17T01:21:08.194Z,10.82
2018-03-17T01:21:48.699Z,10.91
2018-03-17T01:22:29.218Z,10.99
2018-03-17T01:23:09.725Z,11.09
2018-03-17T01:23:50.255Z,11.09
2018-03-17T01:24:30.759Z,11.07
2018-03-17T01:25:11.271Z,11.1
2018-03-17T01:25:51.780Z,11.18
2018-03-17T01:26:32.303Z,11
2018-03-17T01:27:12.820Z,11.06
2018-03-17T01:27:53.339Z,11.17
2018-03-17T01:28:33.845Z,11.15
2018-03-17T01:29:14.358Z,11.09
2018-03-17T01:29:54.865Z,11.22
2018-03-17T01:30:35.384Z,11.36
2018-03-17T01:31:15.900Z,11.36
2018-03-17T01:31:56.412Z,11.27
2018-03-17T01:32:36.972Z,11.36
2018-03-17T01:33:17.479Z,11.51
2018-03-17T01:33:57.991Z,11.42
2018-03-17T01:34:38.498Z,11.39
2018-03-17T01:35:18.994Z,11.37
2018-03-17T01:35:59.530Z,11.33
2018-03-17T01:36:40.065Z,11.37
2018-03-17T01:37:20.604Z,11.09
2018-03-17T01:38:01.106Z,11.19
2018-03-17T01:38:41.612Z,11.02
2018-03-17T01:39:22.110Z,10.94
2018-03-17T01:40:02.636Z,10.92
2018-03-17T01:40:43.152Z,10.92
2018-03-17T01:41:23.681Z,11.09
2018-03-17T01:42:04.200Z,11.07
2018-03-17T01:42:44.717Z,10.96
2018-03-17T01:43:25.233Z,11.04
2018-03-17T01:44:05.753Z,11.02
2018-03-17T01:44:46.269Z,10.94
2018-03-17T01:45:26.774Z,10.79
2018-03-17T01:46:07.291Z,10.81
2018-03-17T01:46:47.804Z,10.79
2018-03-17T01:47:28.320Z,10.7
2018-03-17T01:48:08.860Z,10.66
2018-03-17T01:48:49.359Z,10.71
2018-03-17T01:49:29.879Z,10.53
2018-03-17T01:50:10.373Z,10.64
2018-03-17T01:50:50.885Z,10.68
2018-03-17T01:51:31.435Z,10.64
2018-03-17T01:52:11.969Z,10.64
2018-03-17T01:52:52.479Z,10.74
2018-03-17T01:53:32.999Z,10.76
2018-03-17T01:54:13.496Z,10.64
2018-03-17T01:54:54.035Z,10.63
2018-03-17T01:55:34.564Z,10.71
2018-03-17T01:56:15.071Z,10.79
2018-03-17T01:56:55.622Z,10.86
2018-03-17T01:57:36.147Z,10.82
2018-03-17T01:58:16.646Z,10.73
2018-03-17T01:58:57.159Z,10.67
2018-03-17T01:59:37.689Z,10.78
2018-03-17T02:00:18.201Z,10.78
2018-03-17T02:00:58.706Z,10.73
2018-03-17T02:01:39.217Z,10.78
2018-03-17T02:02:19.733Z,10.73
2018-03-17T02:03:00.238Z,10.59
2018-03-17T02:03:40.756Z,10.6
2018-03-17T02:04:21.295Z,10.71
2018-03-17T02:05:01.803Z,10.81
2018-03-17T02:05:42.308Z,10.78
2018-03-17T02:06:22.839Z,10.66
2018-03-17T02:07:03.354Z,10.66
2018-03-17T02:07:43.873Z,10.71
2018-03-17T02:08:24.396Z,10.73
2018-03-17T02:09:04.918Z,10.74
2018-03-17T02:09:45.427Z,10.7
2018-03-17T02:10:25.926Z,10.79
2018-03-17T02:11:06.439Z,10.59
2018-03-17T02:11:46.956Z,10.67
2018-03-17T02:12:27.475Z,10.63
2018-03-17T02:13:07.986Z,10.6
2018-03-17T02:13:48.504Z,10.68
2018-03-17T02:14:29.024Z,10.53
2018-03-17T02:15:09.562Z,10.55
2018-03-17T02:15:50.060Z,10.45
2018-03-17T02:16:30.624Z,10.27
2018-03-17T02:17:11.127Z,10.17
2018-03-17T02:17:51.661Z,10.17
2018-03-17T02:18:32.238Z,10.27
2018-03-17T02:19:12.753Z,10.12
2018-03-17T02:19:53.262Z,10.22
2018-03-17T02:20:33.787Z,10.22
2018-03-17T02:21:14.303Z,10.29
2018-03-17T02:21:54.807Z,10.15
2018-03-17T02:22:35.323Z,10.25
2018-03-17T02:23:15.842Z,10.22
2018-03-17T02:23:56.353Z,10.12
2018-03-17T02:24:36.870Z,10.29
2018-03-17T02:25:17.400Z,10.34
2018-03-17T02:25:57.917Z,10.36
2018-03-17T02:26:38.440Z,10.3
2018-03-17T02:27:18.943Z,10.36
2018-03-17T02:27:59.472Z,10.17
2018-03-17T02:28:39.989Z,10.29
2018-03-17T02:29:20.527Z,10.34
2018-03-17T02:30:01.049Z,10.4
2018-03-17T02:30:41.585Z,10.3
2018-03-17T02:31:22.106Z,10.3
2018-03-17T02:32:02.642Z,10.36
2018-03-17T02:32:43.165Z,10.3
2018-03-17T02:33:23.681Z,10.14
2018-03-17T02:34:04.192Z,10.29
2018-03-17T02:34:44.706Z,10.3
2018-03-17T02:35:25.215Z,10.33
2018-03-17T02:36:05.741Z,10.45
2018-03-17T02:36:46.306Z,10.52
2018-03-17T02:37:26.829Z,10.56
2018-03-17T02:38:07.343Z,10.52
2018-03-17T02:38:47.856Z,10.38
2018-03-17T02:39:28.364Z,10.02
2018-03-17T02:40:08.948Z,10.05
2018-03-17T02:40:49.395Z,9.99
2018-03-17T02:41:29.927Z,9.91
2018-03-17T02:42:10.455Z,9.86
2018-03-17T02:42:50.982Z,9.84
2018-03-17T02:43:31.491Z,9.81
2018-03-17T02:44:11.998Z,9.94
2018-03-17T02:44:52.514Z,9.9
2018-03-17T02:45:33.062Z,10.02
2018-03-17T02:46:13.601Z,9.97
2018-03-17T02:46:54.107Z,9.84
2018-03-17T02:47:34.626Z,9.84
2018-03-17T02:48:15.144Z,9.87
2018-03-17T02:48:55.659Z,9.94
2018-03-17T02:49:36.202Z,9.91
2018-03-17T02:50:16.755Z,9.78
2018-03-17T02:50:57.305Z,9.86
2018-03-17T02:51:37.805Z,9.81
2018-03-17T02:52:18.324Z,9.86
2018-03-17T02:52:58.834Z,9.83
2018-03-17T02:53:39.344Z,9.99
2018-03-17T02:54:19.818Z,10.02
2018-03-17T02:55:00.328Z,9.91
2018-03-17T02:55:40.828Z,9.96
2018-03-17T02:56:21.350Z,9.91
2018-03-17T02:57:01.851Z,9.76
2018-03-17T02:57:42.364Z,9.72
2018-03-17T02:58:22.894Z,9.83
2018-03-17T02:59:03.435Z,9.94
2018-03-17T02:59:43.921Z,9.84
2018-03-17T03:00:24.482Z,10.01
2018-03-17T03:01:04.946Z,9.94
2018-03-17T03:01:45.438Z,10.04
2018-03-17T03:02:25.940Z,9.81
2018-03-17T03:03:06.428Z,9.86
2018-03-17T03:03:46.938Z,9.97
2018-03-17T03:04:27.440Z,9.97
2018-03-17T03:05:07.906Z,9.96
2018-03-17T03:05:48.404Z,9.94
2018-03-17T03:06:28.928Z,10.08
2018-03-17T03:07:09.487Z,9.96
2018-03-17T03:07:49.973Z,9.93
2018-03-17T03:08:30.478Z,10.01
2018-03-17T03:09:11.003Z,9.89
2018-03-17T03:09:51.516Z,9.81
2018-03-17T03:10:32.047Z,9.87
2018-03-17T03:11:12.550Z,9.79
2018-03-17T03:11:53.081Z,9.74
2018-03-17T03:12:33.607Z,9.72
2018-03-17T03:13:14.115Z,9.74
2018-03-17T03:13:54.633Z,9.71
2018-03-17T03:14:35.145Z,9.78
2018-03-17T03:15:15.660Z,9.76
2018-03-17T03:15:56.185Z,9.91
2018-03-17T03:16:36.688Z,10.01
2018-03-17T03:17:17.207Z,10.01
2018-03-17T03:17:57.723Z,9.99
2018-03-17T03:18:38.231Z,9.96
2018-03-17T03:19:18.760Z,9.9
2018-03-17T03:19:59.262Z,9.86
2018-03-17T03:20:39.768Z,9.83
2018-03-17T03:21:20.301Z,9.69
2018-03-17T03:22:00.819Z,9.72
2018-03-17T03:22:41.332Z,9.58
2018-03-17T03:23:21.852Z,9.54
2018-03-17T03:24:02.815Z,9.42
2018-03-17T03:24:43.751Z,9.6
2018-03-17T03:25:24.304Z,9.58
2018-03-17T03:26:04.942Z,9.75
2018-03-17T03:26:45.654Z,9.76
2018-03-17T03:27:26.798Z,9.54
2018-03-17T03:28:07.644Z,9.57
2018-03-17T03:28:48.140Z,9.75
2018-03-17T03:29:28.610Z,9.69
2018-03-17T03:30:09.128Z,9.51
2018-03-17T03:30:49.638Z,9.61
2018-03-17T03:31:30.170Z,9.64
2018-03-17T03:32:10.676Z,9.61
2018-03-17T03:32:51.194Z,9.74
2018-03-17T03:33:31.737Z,9.72
2018-03-17T03:34:12.246Z,9.81
2018-03-17T03:34:52.768Z,9.75
2018-03-17T03:35:33.286Z,9.72
2018-03-17T03:36:13.791Z,9.68
2018-03-17T03:36:54.330Z,9.75
2018-03-17T03:37:34.848Z,9.76
2018-03-17T03:38:15.378Z,9.66
2018-03-17T03:38:55.889Z,9.71
2018-03-17T03:39:36.404Z,9.75
2018-03-17T03:40:16.914Z,9.75
2018-03-17T03:40:57.432Z,9.84
2018-03-17T03:41:37.943Z,9.79
2018-03-17T03:42:18.454Z,9.87
2018-03-17T03:42:58.977Z,9.84
2018-03-17T03:43:39.476Z,9.79
2018-03-17T03:44:19.980Z,9.84
2018-03-17T03:45:00.550Z,9.84
2018-03-17T03:45:41.060Z,9.68
2018-03-17T03:46:21.586Z,9.74
2018-03-17T03:47:02.089Z,9.81
2018-03-17T03:47:42.616Z,9.86
2018-03-17T03:48:23.137Z,9.71
2018-03-17T03:49:03.636Z,9.69
2018-03-17T03:49:44.150Z,9.66
2018-03-17T03:50:24.652Z,9.65
2018-03-17T03:51:05.176Z,9.54
2018-03-17T03:51:45.695Z,9.68
2018-03-17T03:52:26.218Z,9.57
2018-03-17T03:53:06.723Z,9.71
2018-03-17T03:53:47.245Z,9.71
2018-03-17T03:54:27.760Z,9.75
2018-03-17T03:55:08.284Z,9.78
2018-03-17T03:55:48.809Z,9.71
2018-03-17T03:56:29.323Z,9.74
2018-03-17T03:57:09.832Z,9.76
2018-03-17T03:57:50.333Z,9.71
2018-03-17T03:58:30.855Z,9.68
2018-03-17T03:59:11.394Z,9.69
2018-03-17T03:59:51.900Z,9.75
2018-03-17T04:00:32.417Z,9.75
2018-03-17T04:01:12.915Z,9.83
2018-03-17T04:01:53.422Z,9.91
2018-03-17T04:02:33.929Z,9.89
2018-03-17T04:03:14.473Z,9.93
2018-03-17T04:03:54.992Z,9.79
2018-03-17T04:04:35.486Z,9.76
2018-03-17T04:05:15.983Z,9.84
2018-03-17T04:05:56.505Z,9.86
2018-03-17T04:06:37.021Z,9.76
2018-03-17T04:07:17.537Z,9.76
2018-03-17T04:07:58.062Z,9.87
2018-03-17T04:08:38.568Z,9.79
2018-03-17T04:09:19.084Z,9.84
2018-03-17T04:09:59.611Z,9.75
2018-03-17T04:10:40.122Z,9.75
2018-03-17T04:11:20.634Z,9.78
2018-03-17T04:12:01.156Z,9.81
2018-03-17T04:12:41.679Z,9.75
2018-03-17T04:13:22.192Z,9.83
2018-03-17T04:14:02.709Z,9.71
2018-03-17T04:14:43.219Z,9.74
2018-03-17T04:15:23.727Z,9.78
2018-03-17T04:16:04.247Z,9.69
2018-03-17T04:16:44.762Z,9.71
2018-03-17T04:17:25.269Z,9.76
2018-03-17T04:18:05.791Z,9.75
2018-03-17T04:18:46.375Z,9.72
2018-03-17T04:19:26.891Z,9.79
2018-03-17T04:20:07.407Z,9.75
2018-03-17T04:20:47.937Z,9.81
2018-03-17T04:21:28.461Z,9.91
2018-03-17T04:22:08.974Z,9.84
2018-03-17T04:22:49.493Z,9.78
2018-03-17T04:23:30.029Z,9.78
2018-03-17T04:24:10.558Z,9.72
2018-03-17T04:24:51.078Z,9.65
2018-03-17T04:25:31.582Z,9.21
2018-03-17T04:26:12.102Z,9.26
2018-03-17T04:26:52.626Z,9.48
2018-03-17T04:27:33.146Z,9.39
2018-03-17T04:28:13.704Z,9.46
2018-03-17T04:28:54.183Z,9.29
2018-03-17T04:29:34.696Z,9.18
2018-03-17T04:30:15.202Z,9.02
2018-03-17T04:30:55.724Z,9.08
2018-03-17T04:31:36.247Z,9.13
2018-03-17T04:32:16.766Z,9.08
2018-03-17T04:32:57.281Z,8.83
2018-03-17T04:33:37.809Z,9.01
2018-03-17T04:34:18.342Z,8.94
2018-03-17T04:34:58.869Z,8.89
2018-03-17T04:35:39.399Z,8.84
2018-03-17T04:36:19.910Z,8.91
2018-03-17T04:37:00.428Z,8.99
2018-03-17T04:37:40.973Z,9.01
2018-03-17T04:38:21.451Z,9.05
2018-03-17T04:39:01.969Z,9.23
2018-03-17T04:39:42.493Z,9.26
2018-03-17T04:40:23.010Z,9.15
2018-03-17T04:41:03.509Z,9.11
2018-03-17T04:41:44.021Z,9.17
2018-03-17T04:42:24.542Z,9.14
2018-03-17T04:43:05.064Z,9.11
2018-03-17T04:43:45.582Z,9.26
2018-03-17T04:44:26.105Z,9.26
2018-03-17T04:45:06.639Z,9.28
2018-03-17T04:45:47.133Z,9.18
2018-03-17T04:46:27.638Z,9.14
2018-03-17T04:47:08.152Z,9.14
2018-03-17T04:47:48.668Z,9.14
2018-03-17T04:48:29.253Z,9.29
2018-03-17T04:49:09.698Z,9.36
2018-03-17T04:49:50.226Z,9.46
2018-03-17T04:50:30.730Z,9.43
2018-03-17T04:51:11.264Z,9.36
2018-03-17T04:51:51.773Z,9.36
2018-03-17T04:52:32.305Z,9.42
2018-03-17T04:53:12.828Z,9.43
2018-03-17T04:53:53.364Z,9.42
2018-03-17T04:54:33.882Z,9.5
2018-03-17T04:55:14.394Z,9.5
2018-03-17T04:55:54.896Z,9.5
2018-03-17T04:56:35.414Z,9.35
2018-03-17T04:57:15.927Z,9.36
2018-03-17T04:57:56.444Z,9.11
2018-03-17T04:58:37.019Z,9.17
2018-03-17T04:59:17.552Z,9.36
2018-03-17T04:59:58.089Z,9.32
2018-03-17T05:00:38.592Z,9.29
2018-03-17T05:01:19.109Z,9.38
2018-03-17T05:01:59.626Z,9.36
2018-03-17T05:02:40.157Z,9.23
2018-03-17T05:03:20.674Z,9.05
2018-03-17T05:04:01.183Z,9.14
2018-03-17T05:04:41.706Z,9.11
2018-03-17T05:05:22.217Z,9.14
2018-03-17T05:06:02.733Z,9.18
2018-03-17T05:06:43.251Z,9.11
2018-03-17T05:07:23.769Z,9.14
2018-03-17T05:08:04.315Z,9.13
2018-03-17T05:08:44.816Z,9.1
2018-03-17T05:09:25.397Z,8.92
2018-03-17T05:10:05.860Z,8.95
2018-03-17T05:10:46.376Z,9.05
2018-03-17T05:11:26.875Z,9.18
2018-03-17T05:12:07.381Z,9.24
2018-03-17T05:12:47.899Z,9.42
2018-03-17T05:13:28.412Z,9.28
2018-03-17T05:14:08.937Z,9.24
2018-03-17T05:14:49.443Z,9.28
2018-03-17T05:15:29.957Z,9.21
2018-03-17T05:16:10.479Z,9.38
2018-03-17T05:16:50.992Z,9.39
2018-03-17T05:17:31.513Z,9.29
2018-03-17T05:18:12.025Z,9.08
2018-03-17T05:18:52.551Z,9.13
2018-03-17T05:19:33.078Z,9.14
2018-03-17T05:20:13.601Z,9.14
2018-03-17T05:20:54.118Z,9.08
2018-03-17T05:21:34.643Z,8.87
2018-03-17T05:22:15.101Z,8.84
2018-03-17T05:22:55.611Z,8.92
2018-03-17T05:23:36.162Z,9.11
2018-03-17T05:24:16.670Z,8.96
2018-03-17T05:24:57.110Z,8.98
2018-03-17T05:25:37.642Z,8.96
2018-03-17T05:26:18.083Z,9.17
2018-03-17T05:26:58.550Z,9.01
2018-03-17T05:27:39.065Z,9.05
2018-03-17T05:28:19.568Z,9.14
2018-03-17T05:28:59.995Z,9.15
2018-03-17T05:29:40.524Z,9.28
2018-03-17T05:30:21.014Z,9.15
2018-03-17T05:31:01.488Z,9.26
2018-03-17T05:31:41.981Z,9.23
2018-03-17T05:32:22.475Z,9.28
2018-03-17T05:33:02.975Z,9.04
2018-03-17T05:33:43.480Z,9.1
2018-03-17T05:34:23.992Z,8.94
2018-03-17T05:35:04.506Z,8.86
2018-03-17T05:35:45.082Z,8.83
2018-03-17T05:36:25.519Z,8.83
2018-03-17T05:37:06.129Z,8.68
2018-03-17T05:37:46.553Z,8.74
2018-03-17T05:38:27.061Z,8.76
2018-03-17T05:39:07.576Z,8.83
2018-03-17T05:39:48.090Z,8.83
2018-03-17T05:40:28.604Z,8.87
2018-03-17T05:41:09.129Z,8.74
2018-03-17T05:41:49.636Z,8.87
2018-03-17T05:42:30.163Z,8.98
2018-03-17T05:43:10.674Z,8.98
2018-03-17T05:43:51.188Z,8.79
2018-03-17T05:44:31.724Z,8.52
2018-03-17T05:45:12.230Z,8.56
2018-03-17T05:45:52.747Z,8.43
2018-03-17T05:46:33.276Z,8.53
2018-03-17T05:47:13.789Z,8.26
2018-03-17T05:47:54.322Z,7.67
2018-03-17T05:48:34.835Z,7.58
2018-03-17T05:49:15.355Z,7.79
2018-03-17T05:49:55.895Z,7.86
2018-03-17T05:50:36.400Z,7.87
2018-03-17T05:51:16.919Z,8.12
2018-03-17T05:51:57.443Z,8.19
2018-03-17T05:52:37.958Z,8.29
2018-03-17T05:53:18.475Z,8.4
2018-03-17T05:53:58.993Z,8.45
2018-03-17T05:54:39.507Z,8.38
2018-03-17T05:55:20.024Z,8.38
2018-03-17T05:56:00.564Z,8.55
2018-03-17T05:56:41.106Z,8.37
2018-03-17T05:57:21.619Z,8.4
2018-03-17T05:58:02.137Z,8.05
2018-03-17T05:58:42.604Z,8.12
2018-03-17T05:59:23.098Z,7.8
2018-03-17T06:00:03.576Z,7.95
2018-03-17T06:00:44.211Z,7.89
2018-03-17T06:01:24.658Z,7.83
2018-03-17T06:02:05.196Z,7.82
2018-03-17T06:02:45.704Z,8.01
2018-03-17T06:03:26.216Z,8.07
2018-03-17T06:04:06.717Z,8.1
2018-03-17T06:04:47.217Z,8.15
2018-03-17T06:05:27.825Z,8.12
2018-03-17T06:06:08.166Z,8.18
2018-03-17T06:06:48.760Z,8.19
2018-03-17T06:07:29.198Z,8.25
2018-03-17T06:08:09.761Z,8.29
2018-03-17T06:08:50.213Z,8.05
2018-03-17T06:09:30.696Z,8.04
2018-03-17T06:10:11.217Z,8.15
2018-03-17T06:10:51.813Z,8.12
2018-03-17T06:11:32.286Z,8.02
2018-03-17T06:12:12.951Z,8.12
2018-03-17T06:12:53.419Z,8.1
2018-03-17T06:13:33.922Z,8.02
2018-03-17T06:14:14.443Z,8
2018-03-17T06:14:54.955Z,8.04
2018-03-17T06:15:35.404Z,8.11
2018-03-17T06:16:15.884Z,8.07
2018-03-17T06:16:56.423Z,8.15
2018-03-17T06:17:36.972Z,7.87
2018-03-17T06:18:17.560Z,7.63
2018-03-17T06:18:57.891Z,7.69
2018-03-17T06:19:38.732Z,7.58
2018-03-17T06:20:19.984Z,7.58
2018-03-17T06:21:00.184Z,7.55
2018-03-17T06:21:40.709Z,7.42
2018-03-17T06:22:21.137Z,7.37
2018-03-17T06:23:01.806Z,7.53
2018-03-17T06:23:42.224Z,7.57
2018-03-17T06:24:23.107Z,7.45
2018-03-17T06:25:03.705Z,7.35
2018-03-17T06:25:44.168Z,7.45
2018-03-17T06:26:24.640Z,7.39
2018-03-17T06:27:05.103Z,7.45
2018-03-17T06:27:45.698Z,7.42
2018-03-17T06:28:26.174Z,7.53
2018-03-17T06:29:06.708Z,7.52
2018-03-17T06:29:47.243Z,7.6
2018-03-17T06:30:27.758Z,7.61
2018-03-17T06:31:08.362Z,7.4
2018-03-17T06:31:48.765Z,7.25
2018-03-17T06:32:29.520Z,7.3
2018-03-17T06:33:10.023Z,7.2
2018-03-17T06:33:50.548Z,7.42
2018-03-17T06:34:31.034Z,7.48
2018-03-17T06:35:11.533Z,7.52
2018-03-17T06:35:51.994Z,7.64
2018-03-17T06:36:32.500Z,7.68
2018-03-17T06:37:12.968Z,7.75
2018-03-17T06:37:53.442Z,7.82
2018-03-17T06:38:33.940Z,7.89
2018-03-17T06:39:14.365Z,7.9
2018-03-17T06:39:54.837Z,7.82
2018-03-17T06:40:35.430Z,7.63
2018-03-17T06:41:15.921Z,7.64
2018-03-17T06:41:56.380Z,7.63
2018-03-17T06:42:36.816Z,7.64
2018-03-17T06:43:17.341Z,7.58
2018-03-17T06:43:57.957Z,7.4
2018-03-17T06:44:38.580Z,7.34
2018-03-17T06:45:19.036Z,7.49
2018-03-17T06:45:59.467Z,7.52
2018-03-17T06:46:39.946Z,7.72
2018-03-17T06:47:20.480Z,7.67
2018-03-17T06:48:00.915Z,7.77
2018-03-17T06:48:41.476Z,7.79
2018-03-17T06:49:21.928Z,7.8
2018-03-17T06:50:02.424Z,7.58
2018-03-17T06:50:42.884Z,7.55
2018-03-17T06:51:23.383Z,7.45
2018-03-17T06:52:03.874Z,7.31
2018-03-17T06:52:44.356Z,7.35
2018-03-17T06:53:24.829Z,7.35
2018-03-17T06:54:05.308Z,7.43
2018-03-17T06:54:45.805Z,7.34
2018-03-17T06:55:26.335Z,7.32
2018-03-17T06:56:06.918Z,7.4
2018-03-17T06:56:47.346Z,7.55
2018-03-17T06:57:27.849Z,7.48
2018-03-17T06:58:08.448Z,7.52
2018-03-17T06:58:48.988Z,7.45
2018-03-17T06:59:29.399Z,7.15
2018-03-17T07:00:09.869Z,7.34
2018-03-17T07:00:50.375Z,7.48
2018-03-17T07:01:30.849Z,7.68
2018-03-17T07:02:11.288Z,7.67
2018-03-17T07:02:51.804Z,7.57
2018-03-17T07:03:32.315Z,7.61
2018-03-17T07:04:12.796Z,7.53
2018-03-17T07:04:53.288Z,7.67
2018-03-17T07:05:33.765Z,7.8
2018-03-17T07:06:14.252Z,7.68
2018-03-17T07:06:54.758Z,7.72
2018-03-17T07:07:35.231Z,7.8
2018-03-17T07:08:15.699Z,7.79
2018-03-17T07:08:56.195Z,7.68
2018-03-17T07:09:36.695Z,7.5
2018-03-17T07:10:17.195Z,7.42
2018-03-17T07:10:57.664Z,7.57
2018-03-17T07:11:38.148Z,7.57
2018-03-17T07:12:18.640Z,7.71
2018-03-17T07:12:59.148Z,7.67
2018-03-17T07:13:39.622Z,7.79
2018-03-17T07:14:20.095Z,7.71
2018-03-17T07:15:00.586Z,7.67
2018-03-17T07:15:41.049Z,7.61
2018-03-17T07:16:21.589Z,7.49
2018-03-17T07:17:02.078Z,7.55
2018-03-17T07:17:42.548Z,7.52
2018-03-17T07:18:23.017Z,7.55
2018-03-17T07:19:03.490Z,7.74
2018-03-17T07:19:43.976Z,7.82
2018-03-17T07:20:24.448Z,7.83
2018-03-17T07:21:04.994Z,7.89
2018-03-17T07:21:45.464Z,7.95
2018-03-17T07:22:25.940Z,7.64
2018-03-17T07:23:06.448Z,7.77
2018-03-17T07:23:46.917Z,7.69
2018-03-17T07:24:27.376Z,7.9
2018-03-17T07:25:07.867Z,7.9
2018-03-17T07:25:48.368Z,7.93
2018-03-17T07:26:28.835Z,7.64
2018-03-17T07:27:09.306Z,7.89
2018-03-17T07:27:49.863Z,7.93
2018-03-17T07:28:30.308Z,7.9
2018-03-17T07:29:10.829Z,7.86
2018-03-17T07:29:51.326Z,7.82
2018-03-17T07:30:31.811Z,7.57
2018-03-17T07:31:12.267Z,7.74
2018-03-17T07:31:52.775Z,7.9
2018-03-17T07:32:33.272Z,8.04
2018-03-17T07:33:13.753Z,7.89
2018-03-17T07:33:54.230Z,7.89
2018-03-17T07:34:34.719Z,7.9
2018-03-17T07:35:15.292Z,7.8
2018-03-17T07:35:55.807Z,7.92
2018-03-17T07:36:36.275Z,7.71
2018-03-17T07:37:16.767Z,7.67
2018-03-17T07:37:57.271Z,7.57
2018-03-17T07:38:37.797Z,7.55
2018-03-17T07:39:18.283Z,7.68
2018-03-17T07:39:58.764Z,7.74
2018-03-17T07:40:39.178Z,7.49
2018-03-17T07:41:19.671Z,7.39
2018-03-17T07:42:00.211Z,7.39
2018-03-17T07:42:40.813Z,7.37
2018-03-17T07:43:21.290Z,7.31
2018-03-17T07:44:01.877Z,7.42
2018-03-17T07:44:42.365Z,7.45
2018-03-17T07:45:22.852Z,7.39
2018-03-17T07:46:03.461Z,7.45
2018-03-17T07:46:43.836Z,7.42
2018-03-17T07:47:24.292Z,7.4
2018-03-17T07:48:04.832Z,7.4
2018-03-17T07:48:45.308Z,7.32
2018-03-17T07:49:25.762Z,7.45
2018-03-17T07:50:06.253Z,7.35
2018-03-17T07:50:46.847Z,7.64
2018-03-17T07:51:27.359Z,7.68
2018-03-17T07:52:07.800Z,7.4
2018-03-17T07:52:48.338Z,7.5
2018-03-17T07:53:28.842Z,7.48
2018-03-17T07:54:09.279Z,7.13
2018-03-17T07:54:49.774Z,7.15
2018-03-17T07:55:30.388Z,7.3
2018-03-17T07:56:10.760Z,7.43
2018-03-17T07:56:51.306Z,7.48
2018-03-17T07:57:31.862Z,7.39
2018-03-17T07:58:12.304Z,7.48
2018-03-17T07:58:52.828Z,7.53
2018-03-17T07:59:33.300Z,7.68
2018-03-17T08:00:13.789Z,7.72
2018-03-17T08:00:54.309Z,7.69
2018-03-17T08:01:34.767Z,7.85
2018-03-17T08:02:15.238Z,7.95
2018-03-17T08:02:55.770Z,7.93
2018-03-17T08:03:36.203Z,8.05
2018-03-17T08:04:16.778Z,7.85
2018-03-17T08:04:57.192Z,7.85
2018-03-17T08:05:37.678Z,7.86
2018-03-17T08:06:18.723Z,7.77
2018-03-17T08:06:59.212Z,7.48
2018-03-17T08:07:39.779Z,7.39
2018-03-17T08:08:20.293Z,7.3
2018-03-17T08:09:00.850Z,7.43
2018-03-17T08:09:41.215Z,7.15
2018-03-17T08:10:21.659Z,7.27
2018-03-17T08:11:02.209Z,7.16
2018-03-17T08:11:42.726Z,7.12
2018-03-17T08:12:23.356Z,7.25
2018-03-17T08:13:03.865Z,7.32
2018-03-17T08:13:44.386Z,7.43
2018-03-17T08:14:24.991Z,7.53
2018-03-17T08:15:05.421Z,7.34
2018-03-17T08:15:46.130Z,7.48
2018-03-17T08:16:26.650Z,7.39
2018-03-17T08:17:07.128Z,7.5
2018-03-17T08:17:47.742Z,7.53
2018-03-17T08:18:28.230Z,7.31
2018-03-17T08:19:08.856Z,7.24
2018-03-17T08:19:49.278Z,7.3
2018-03-17T08:20:29.789Z,7.42
2018-03-17T08:21:10.282Z,7.4
2018-03-17T08:21:50.792Z,7.32
2018-03-17T08:22:31.308Z,7.25
2018-03-17T08:23:11.848Z,7.32
2018-03-17T08:23:52.417Z,7.43
2018-03-17T08:24:32.909Z,7.4
2018-03-17T08:25:13.419Z,7.39
2018-03-17T08:25:53.940Z,7.25
2018-03-17T08:26:34.504Z,7.16
2018-03-17T08:27:14.977Z,6.94
2018-03-17T08:27:55.603Z,7.03
2018-03-17T08:28:36.294Z,6.92
2018-03-17T08:29:16.788Z,7.03
2018-03-17T08:29:57.291Z,7.03
2018-03-17T08:30:37.866Z,7.2
2018-03-17T08:31:18.318Z,7.32
2018-03-17T08:31:58.873Z,7.03
2018-03-17T08:32:39.460Z,6.92
2018-03-17T08:33:19.994Z,7.03
2018-03-17T08:34:00.395Z,6.99
2018-03-17T08:34:40.915Z,7.15
2018-03-17T08:35:21.465Z,7.21
2018-03-17T08:36:01.973Z,7.23
2018-03-17T08:36:42.515Z,7.42
2018-03-17T08:37:22.969Z,7.34
2018-03-17T08:38:03.478Z,7.25
2018-03-17T08:38:43.967Z,7.02
2018-03-17T08:39:24.505Z,6.85
2018-03-17T08:40:04.988Z,6.98
2018-03-17T08:40:45.502Z,7.17
2018-03-17T08:41:26.003Z,7.06
2018-03-17T08:42:06.518Z,7.13
2018-03-17T08:42:47.025Z,7.13
2018-03-17T08:43:27.529Z,7.21
2018-03-17T08:44:08.039Z,7.16
2018-03-17T08:44:48.546Z,7.15
2018-03-17T08:45:29.055Z,6.84
2018-03-17T08:46:09.566Z,7.03
2018-03-17T08:46:50.080Z,7.09
2018-03-17T08:47:30.577Z,7.28
2018-03-17T08:48:11.092Z,7.2
2018-03-17T08:48:51.614Z,7.21
2018-03-17T08:49:32.105Z,7.05
2018-03-17T08:50:12.623Z,7.23
2018-03-17T08:50:53.164Z,7.21
2018-03-17T08:51:33.680Z,7.15
2018-03-17T08:52:14.185Z,7.07
2018-03-17T08:52:54.696Z,7.03
2018-03-17T08:53:35.215Z,7.1
2018-03-17T08:54:15.727Z,6.99
2018-03-17T08:54:56.232Z,7.09